Aérodrome :
LOGIN :

S'inscrire | Disclaimer

   EN    FR    IT 

 










Légende :    VFR   VFR Marginal   IFR   IFR Intensif   IFR Très Intensif
Visi : 
Plafond : 
>= 8 km
>= 3000ft
5 à 8 km
1000 à 3000 ft
1500m à 5 km
500 à 1000 ft
800 à 1500m
200 à 500 ft
< 800m
< 200 ft
Symboles :   Orages  Brouillard  Fortes neiges  Fortes précipitations  Vent > 20 kt
SIGMETs :   Divers  Orages  Givrage  Turbulence  Onde Orograph.  Cendres Volcan.







- Altitude de l'aérodrome : 286 ft
- Code IATA : FFD


EGVA - RAF Fairford

DERNIER METAR :
  • 221156Z AUTO 21022G28KT 9999 OVC023 14/11 A2938 RMK AO2 PK WND 20029/44 RAE00DZB00E01 SLP952 P0000 60000 70003 T01430107 10143 20130 57025 $

METARs EXPIRÉS :
  • 221101Z AUTO 21017G22KT 9999 OVC020 14/11 A2942 RMK AO2 RAE00DZB00E01 SLP966 $
  • 221051Z AUTO 21020G25KT 9999 -RA OVC022 14/11 A2943 RMK AO2 RAB0957E06RAB51 SLP969 $
  • 221006Z AUTO 21020KT 9999 BKN023 BKN029 BKN037 OVC048 14/11 A2944 RMK AO2 RAB0957E06 CIG 023V041 BKN023 V SCT SLP972 $
  • 220957Z AUTO 21022G27KT 9999 -RA SCT022 SCT026 BKN041 OVC050 14/11 A2944 RMK AO2 RAB57 SLP972 $

Prévision TAF périmée.
Pas de NOTAMs connus pour ce terrain.
2 SIGMETs publiés pour la FIR London (EGTT) :
 
Turbulence forte
EGTT SIGMET 05 VALID 221000/221400 EGRR
EGTT LONDON FIR SEV TURB FCST WI N4850 W00800 - N5100 W00800 - N5220 W00530 - N5345 W00530 - N5439 W00223 - N4932 W00435 - N4850 W00800 SFC/FL060 MOV ENE 15KT INTSF=
Onde orographique forte
EGTT SIGMET 04 VALID 221000/221400 EGRR
EGTT LONDON FIR SEV MTW FCST WI N5500 E00045 - N5412 E00110 - N5047 W00255 - N5045 W00430 - N5500 W00415 - N5500 W00100 - N5500 E00045 FL020/180 STNR INTSF=



MET'MAP, la Météo Aéronautique d'un coup d'oeil ! - Copyright ORBIFLY Décembre 2007 - Disclaimer

ORBIFLY MET'MAP TEAM :

Programmation & Développement : Alexandra Zaïnal
Conception & Développement : Baudouin d'Aumeries
Co-Programmation & Développement : Marc-Olivier Méhu
Soutien technique & logistique : Manuel Goepfert

Contact : metmap@orbifly.com




SOURCES & CREDITS :

   NOAA